Time;durP1;ratioP1;P1;durP2;ratioP2;P2;SDS_P1;SDS_P2;PMS_P1;PMS_P2;Temp;Humidity;BMP_temperature;BMP_pressure;BME280_temperature;BME280_humidity;BME280_pressure;Samples;Min_cycle;Max_cycle;Signal;HPM_P1;HPM_P2
2022/06/18 00:00:22;;;;;;;6.60;4.77;;;15.60;99.90;;;;;;5015626;28;20212;-67
2022/06/18 00:02:49;;;;;;;8.87;5.10;;;15.60;99.90;;;;;;5015451;28;20299;-68
2022/06/18 00:05:19;;;;;;;6.93;5.10;;;15.50;99.90;;;;;;5015329;28;20641;-68
2022/06/18 00:07:50;;;;;;;10.60;5.10;;;15.50;99.90;;;;;;5015285;28;20204;-67
2022/06/18 00:10:21;;;;;;;9.97;5.27;;;15.40;99.90;;;;;;5016741;28;20634;-67
2022/06/18 00:15:38;;;;;;;7.17;4.97;;;15.30;99.90;;;;;;5014552;28;20314;-67
2022/06/18 00:18:13;;;;;;;11.40;5.40;;;15.30;99.90;;;;;;5015141;28;20200;-67
2022/06/18 00:20:41;;;;;;;8.13;5.20;;;15.30;99.90;;;;;;5015008;28;20219;-67
2022/06/18 00:23:14;;;;;;;8.33;4.90;;;15.20;99.90;;;;;;5015035;28;20252;-67
2022/06/18 00:25:44;;;;;;;6.77;4.50;;;15.20;99.90;;;;;;5014558;28;20286;-68
2022/06/18 00:28:21;;;;;;;8.00;5.30;;;15.10;99.90;;;;;;5015114;28;20757;-67
2022/06/18 00:30:49;;;;;;;9.73;4.87;;;15.10;99.90;;;;;;5014775;28;20211;-67
2022/06/18 00:33:17;;;;;;;6.90;4.80;;;15.00;99.90;;;;;;5014890;28;20208;-67
2022/06/18 00:35:45;;;;;;;10.03;5.70;;;14.90;99.90;;;;;;5014584;28;20236;-67
2022/06/18 00:38:24;;;;;;;8.13;5.37;;;14.90;99.90;;;;;;5014486;28;20307;-67
2022/06/18 00:40:51;;;;;;;9.30;5.70;;;14.90;99.90;;;;;;4998610;28;20196;-68
2022/06/18 00:43:23;;;;;;;10.00;5.37;;;14.90;99.90;;;;;;5015083;28;20287;-67
2022/06/18 00:45:54;;;;;;;8.53;5.33;;;14.90;99.90;;;;;;5014504;28;20196;-67
2022/06/18 00:48:26;;;;;;;9.73;5.33;;;15.00;99.90;;;;;;5014497;28;20223;-67
2022/06/18 00:50:59;;;;;;;9.47;5.73;;;15.00;99.90;;;;;;5014436;28;20669;-68
2022/06/18 00:53:31;;;;;;;8.97;5.70;;;15.00;99.90;;;;;;5015643;28;20292;-67
2022/06/18 00:56:12;;;;;;;7.63;5.50;;;15.00;99.90;;;;;;5017356;28;20255;-67
2022/06/18 00:58:49;;;;;;;9.53;5.70;;;15.00;99.90;;;;;;5017632;28;20695;-67
2022/06/18 01:01:21;;;;;;;8.20;5.40;;;15.00;99.90;;;;;;5017626;28;20215;-67
2022/06/18 01:03:50;;;;;;;7.67;5.50;;;15.00;99.90;;;;;;5035568;28;20599;-67
2022/06/18 01:06:23;;;;;;;9.70;5.43;;;15.00;99.90;;;;;;5017405;28;20581;-67
2022/06/18 01:09:08;;;;;;;13.00;5.90;;;15.00;99.90;;;;;;5017336;28;20203;-67
2022/06/18 01:11:37;;;;;;;11.80;5.93;;;15.00;99.90;;;;;;5017363;28;20206;-67
2022/06/18 01:14:07;;;;;;;11.10;5.67;;;14.90;99.90;;;;;;5000781;28;20207;-68
2022/06/18 01:16:35;;;;;;;9.23;5.93;;;14.90;99.90;;;;;;5016873;28;20273;-67
2022/06/18 01:19:05;;;;;;;8.90;6.20;;;14.90;99.90;;;;;;5017327;28;20553;-67
2022/06/18 01:21:59;;;;;;;9.77;5.67;;;14.90;99.90;;;;;;5017357;28;20302;-68
2022/06/18 01:24:39;;;;;;;8.03;5.70;;;14.90;99.90;;;;;;5034643;28;20707;-68
2022/06/18 01:27:08;;;;;;;9.83;5.33;;;15.00;99.90;;;;;;5034713;28;20195;-67
2022/06/18 01:29:37;;;;;;;9.90;5.63;;;14.90;99.90;;;;;;5017048;28;20227;-68
2022/06/18 01:32:07;;;;;;;9.83;5.80;;;14.90;99.90;;;;;;5016752;28;20207;-67
2022/06/18 01:34:35;;;;;;;12.17;5.80;;;14.90;99.90;;;;;;5017014;28;20302;-69
2022/06/18 01:37:04;;;;;;;8.97;6.13;;;14.90;99.90;;;;;;5016868;28;20688;-66
2022/06/18 01:39:36;;;;;;;8.63;5.50;;;14.90;99.90;;;;;;5016666;28;20223;-68
2022/06/18 01:42:27;;;;;;;9.17;6.23;;;14.80;99.90;;;;;;5016734;28;20295;-66
2022/06/18 01:44:58;;;;;;;10.37;5.80;;;14.80;99.90;;;;;;5034289;28;20599;-67
2022/06/18 01:47:37;;;;;;;7.17;5.50;;;14.70;99.90;;;;;;5034881;28;20206;-67
2022/06/18 01:50:12;;;;;;;8.87;5.80;;;14.70;99.90;;;;;;5016870;28;20196;-66
2022/06/18 01:52:45;;;;;;;9.07;5.60;;;14.60;99.90;;;;;;5016402;28;20253;-67
2022/06/18 01:55:21;;;;;;;8.97;5.87;;;14.60;99.90;;;;;;5016178;28;20322;-68
2022/06/18 01:57:53;;;;;;;7.20;5.53;;;14.50;99.90;;;;;;5015878;28;20691;-68
2022/06/18 02:00:25;;;;;;;9.53;6.10;;;14.40;99.90;;;;;;5016670;28;20555;-68
2022/06/18 02:02:52;;;;;;;8.23;5.90;;;14.50;99.90;;;;;;5016235;28;20287;-68
2022/06/18 02:05:21;;;;;;;9.17;5.80;;;14.50;99.90;;;;;;5016433;28;20203;-68
2022/06/18 02:07:49;;;;;;;9.33;5.97;;;14.40;99.90;;;;;;5016467;28;20235;-68
2022/06/18 02:10:36;;;;;;;8.80;6.00;;;14.50;99.90;;;;;;5016263;28;20226;-67
2022/06/18 02:13:04;;;;;;;11.33;5.80;;;14.40;99.90;;;;;;5015402;28;20203;-68
2022/06/18 02:15:37;;;;;;;8.10;6.13;;;14.30;99.90;;;;;;5033647;28;20279;-67
2022/06/18 02:18:08;;;;;;;8.80;6.10;;;14.20;99.90;;;;;;5016182;28;20298;-67
2022/06/18 02:20:39;;;;;;;10.63;6.10;;;14.20;99.90;;;;;;5016454;28;20219;-67
2022/06/18 02:23:06;;;;;;;8.20;5.77;;;14.20;99.90;;;;;;5016238;28;20213;-67
2022/06/18 02:25:33;;;;;;;9.00;6.20;;;14.20;99.90;;;;;;5015670;28;20198;-69
2022/06/18 02:28:09;;;;;;;9.70;6.23;;;14.20;99.90;;;;;;5015933;28;20287;-67
2022/06/18 02:30:36;;;;;;;8.17;5.73;;;14.10;99.90;;;;;;5033618;28;20199;-68
2022/06/18 02:33:12;;;;;;;10.00;6.20;;;14.10;99.90;;;;;;5015857;28;20270;-67
2022/06/18 02:35:39;;;;;;;9.70;6.43;;;14.20;99.90;;;;;;5015664;28;20369;-68
2022/06/18 02:38:18;;;;;;;10.67;6.23;;;14.20;99.90;;;;;;5015466;28;20313;-68
2022/06/18 02:40:46;;;;;;;10.13;6.50;;;14.10;99.90;;;;;;5033750;28;20206;-68
2022/06/18 02:43:15;;;;;;;10.23;6.33;;;14.10;99.90;;;;;;5015740;28;20201;-68
2022/06/18 02:45:45;;;;;;;9.80;6.13;;;14.10;99.90;;;;;;5015663;28;20195;-69
2022/06/18 02:48:12;;;;;;;11.10;7.07;;;14.10;99.90;;;;;;5015487;28;20206;-67
2022/06/18 02:50:41;;;;;;;8.77;6.17;;;14.10;99.90;;;;;;5015538;28;20201;-67
2022/06/18 02:53:11;;;;;;;9.97;6.40;;;14.10;99.90;;;;;;5015521;28;20234;-67
2022/06/18 02:55:49;;;;;;;8.80;5.77;;;14.20;99.90;;;;;;5015079;28;20233;-67
2022/06/18 02:58:24;;;;;;;10.23;6.27;;;14.20;99.90;;;;;;5015258;28;20684;-68
2022/06/18 03:00:54;;;;;;;8.77;5.97;;;14.20;99.90;;;;;;5015516;28;20205;-67
2022/06/18 03:03:23;;;;;;;12.67;6.47;;;14.20;99.90;;;;;;5015307;28;20662;-67
2022/06/18 03:05:52;;;;;;;8.57;6.30;;;14.20;99.90;;;;;;5015318;28;20238;-67
2022/06/18 03:08:25;;;;;;;9.80;6.00;;;14.30;99.90;;;;;;5015261;28;20199;-67
2022/06/18 03:13:38;;;;;;;9.13;6.00;;;14.40;99.90;;;;;;5015190;28;20198;-67
2022/06/18 03:16:11;;;;;;;8.13;5.90;;;14.50;99.90;;;;;;5032657;28;20195;-67
2022/06/18 03:18:39;;;;;;;9.17;5.90;;;14.50;99.90;;;;;;5015589;28;20657;-68
2022/06/18 03:21:15;;;;;;;9.23;5.60;;;14.50;99.90;;;;;;5015094;28;20245;-67
2022/06/18 03:23:44;;;;;;;8.23;5.60;;;14.60;99.90;;;;;;5015280;28;20207;-67
2022/06/18 03:26:12;;;;;;;8.93;5.60;;;14.70;99.90;;;;;;5014944;28;20219;-67
2022/06/18 03:28:40;;;;;;;7.97;5.90;;;14.80;99.90;;;;;;5015036;28;20690;-67
2022/06/18 03:31:07;;;;;;;8.30;5.40;;;14.90;99.90;;;;;;5031582;28;20199;-67
2022/06/18 03:33:34;;;;;;;20.63;7.33;;;14.90;99.90;;;;;;5014962;28;20563;-68
2022/06/18 03:36:02;;;;;;;7.43;5.20;;;15.00;99.90;;;;;;5014824;28;20195;-66
2022/06/18 03:38:29;;;;;;;8.43;5.10;;;15.00;99.90;;;;;;5032989;28;20199;-67
2022/06/18 03:40:57;;;;;;;7.67;5.33;;;15.10;99.90;;;;;;5032791;28;20199;-68
2022/06/18 03:43:26;;;;;;;6.90;4.70;;;15.20;99.90;;;;;;5014968;28;20257;-68
2022/06/18 03:45:58;;;;;;;9.10;4.50;;;15.30;99.90;;;;;;5015042;28;20197;-68
2022/06/18 03:48:50;;;;;;;5.60;4.00;;;15.40;99.90;;;;;;5014859;28;20199;-67
2022/06/18 03:51:17;;;;;;;5.90;4.00;;;15.40;99.90;;;;;;4936778;29;20229;-67
2022/06/18 03:53:45;;;;;;;5.13;3.80;;;15.50;99.90;;;;;;4935975;29;20324;-67
2022/06/18 03:56:14;;;;;;;5.80;3.80;;;15.50;99.90;;;;;;4935961;29;20376;-67
2022/06/18 03:58:42;;;;;;;7.10;3.87;;;15.60;99.90;;;;;;4920609;29;20225;-67
2022/06/18 04:01:12;;;;;;;5.17;3.93;;;15.70;99.90;;;;;;4936378;29;20206;-67
2022/06/18 04:03:39;;;;;;;6.90;4.10;;;15.80;99.90;;;;;;4936273;29;20289;-67
2022/06/18 04:06:08;;;;;;;5.83;4.13;;;16.00;99.90;;;;;;4952245;29;20580;-68
2022/06/18 04:08:35;;;;;;;4.83;3.60;;;16.00;99.90;;;;;;4936180;29;20205;-67
2022/06/18 04:11:02;;;;;;;6.50;3.50;;;16.20;99.90;;;;;;4936216;29;20297;-67
2022/06/18 04:13:29;;;;;;;5.20;3.27;;;16.10;99.90;;;;;;4952413;29;20198;-67
2022/06/18 04:15:56;;;;;;;4.40;3.33;;;16.30;99.90;;;;;;4936244;29;20221;-67
2022/06/18 04:18:23;;;;;;;5.40;3.47;;;16.30;99.90;;;;;;4952427;29;20222;-67
2022/06/18 04:20:52;;;;;;;4.23;3.33;;;16.40;99.90;;;;;;4952952;28;20363;-67
2022/06/18 04:23:19;;;;;;;6.73;3.87;;;16.40;99.90;;;;;;4955468;29;20633;-68
2022/06/18 04:25:46;;;;;;;5.13;3.70;;;16.50;99.90;;;;;;4939589;29;20205;-67
2022/06/18 04:28:16;;;;;;;3.70;3.03;;;16.60;99.90;;;;;;4976737;28;20665;-67
2022/06/18 04:30:43;;;;;;;6.87;3.20;;;16.70;99.90;;;;;;5018272;28;20297;-67
2022/06/18 04:33:11;;;;;;;4.70;3.43;;;16.80;99.90;;;;;;5017921;28;20214;-67
2022/06/18 04:35:38;;;;;;;4.07;3.20;;;16.90;99.90;;;;;;5018239;28;20294;-68
2022/06/18 04:38:05;;;;;;;4.93;3.20;;;16.90;99.90;;;;;;5018264;28;20228;-67
2022/06/18 04:40:33;;;;;;;6.50;3.47;;;17.10;99.90;;;;;;5035879;28;20191;-67
2022/06/18 04:43:20;;;;;;;6.67;3.60;;;17.10;99.90;;;;;;5017849;28;20202;-67
2022/06/18 04:45:47;;;;;;;4.70;3.40;;;17.30;99.90;;;;;;5017981;28;20204;-68
2022/06/18 04:48:14;;;;;;;5.07;3.53;;;17.40;99.90;;;;;;5017751;28;20226;-68
2022/06/18 04:50:41;;;;;;;5.03;3.13;;;17.50;99.90;;;;;;5035463;28;20276;-68
2022/06/18 04:53:10;;;;;;;4.97;3.33;;;17.60;99.90;;;;;;5017360;28;20199;-67
2022/06/18 04:55:37;;;;;;;6.43;3.20;;;17.70;99.90;;;;;;5017259;28;20325;-67
2022/06/18 04:58:04;;;;;;;5.33;3.30;;;17.60;99.90;;;;;;5017521;28;20575;-68
2022/06/18 05:00:33;;;;;;;4.93;3.43;;;17.80;99.90;;;;;;5017484;28;20356;-67
2022/06/18 05:03:01;;;;;;;8.03;3.40;;;17.90;99.90;;;;;;5035766;28;20198;-68
2022/06/18 05:05:29;;;;;;;3.70;3.07;;;18.00;99.90;;;;;;5017672;28;20766;-67
2022/06/18 05:07:56;;;;;;;6.73;3.10;;;18.00;99.90;;;;;;5017288;28;20222;-67
2022/06/18 05:10:23;;;;;;;4.20;3.17;;;18.10;99.90;;;;;;5017646;28;20202;-67
2022/06/18 05:12:50;;;;;;;3.40;2.60;;;18.20;99.90;;;;;;5017393;28;20245;-67
2022/06/18 05:15:18;;;;;;;4.07;2.80;;;18.20;99.90;;;;;;5017323;28;20231;-67
2022/06/18 05:17:46;;;;;;;3.93;3.00;;;18.30;99.90;;;;;;5017037;28;20314;-67
2022/06/18 05:20:17;;;;;;;4.63;3.07;;;18.40;99.90;;;;;;5017206;28;20234;-67
2022/06/18 05:22:44;;;;;;;4.03;2.80;;;18.50;99.90;;;;;;5016962;28;20387;-68
2022/06/18 05:25:13;;;;;;;5.10;2.80;;;18.60;99.90;;;;;;5017251;28;20195;-68
2022/06/18 05:27:39;;;;;;;5.13;2.77;;;18.80;99.90;;;;;;5017121;28;20309;-68
2022/06/18 05:30:09;;;;;;;6.30;3.27;;;18.80;99.90;;;;;;5017011;28;20298;-68
2022/06/18 05:32:36;;;;;;;5.87;2.80;;;18.90;99.90;;;;;;5016178;28;20225;-68
2022/06/18 05:35:04;;;;;;;4.00;2.70;;;19.00;99.90;;;;;;5016738;28;20204;-68
2022/06/18 05:37:32;;;;;;;3.80;2.63;;;19.00;99.90;;;;;;5016658;28;20314;-68
2022/06/18 05:40:00;;;;;;;6.13;2.97;;;19.10;99.90;;;;;;5016770;28;20227;-68
2022/06/18 05:42:27;;;;;;;4.23;2.47;;;19.20;99.90;;;;;;5017108;28;20555;-68
2022/06/18 05:44:54;;;;;;;3.47;2.67;;;19.20;99.90;;;;;;5016791;28;20626;-67
2022/06/18 05:47:25;;;;;;;5.20;2.90;;;19.30;99.90;;;;;;5016596;28;20196;-68
2022/06/18 05:49:56;;;;;;;4.70;2.83;;;19.30;99.90;;;;;;5016519;28;20188;-68
2022/06/18 05:52:23;;;;;;;4.33;2.80;;;19.40;99.90;;;;;;5016623;28;20261;-69
2022/06/18 05:54:51;;;;;;;3.70;2.73;;;19.60;99.90;;;;;;5016215;28;20231;-68
2022/06/18 05:57:22;;;;;;;3.63;2.70;;;19.50;99.90;;;;;;5016309;28;20255;-68
2022/06/18 05:59:49;;;;;;;3.50;2.57;;;19.70;99.90;;;;;;5016444;28;20213;-68
2022/06/18 06:02:18;;;;;;;4.23;2.63;;;19.70;99.90;;;;;;5034127;28;20198;-68
2022/06/18 06:04:46;;;;;;;5.20;3.07;;;19.70;99.90;;;;;;5016319;28;20238;-68
2022/06/18 06:07:21;;;;;;;5.13;2.93;;;19.70;99.90;;;;;;5016348;28;20290;-68
2022/06/18 06:12:35;;;;;;;4.13;2.80;;;20.10;99.90;;;;;;5016064;28;20680;-67
2022/06/18 06:15:03;;;;;;;6.00;2.70;;;20.10;99.90;;;;;;5016161;28;20534;-68
2022/06/18 06:17:33;;;;;;;8.67;3.17;;;20.30;99.90;;;;;;5016083;28;20681;-68
2022/06/18 06:20:08;;;;;;;4.83;2.97;;;20.30;99.90;;;;;;5016385;28;20533;-68
2022/06/18 06:22:35;;;;;;;4.60;2.90;;;20.40;99.90;;;;;;5033628;28;20286;-68
2022/06/18 06:25:03;;;;;;;4.07;2.63;;;20.50;99.90;;;;;;5015660;28;20199;-67
2022/06/18 06:27:30;;;;;;;4.17;2.80;;;20.50;99.90;;;;;;5015888;28;20230;-67
2022/06/18 06:29:56;;;;;;;4.27;2.77;;;20.60;99.90;;;;;;5033680;28;20355;-67
2022/06/18 06:32:23;;;;;;;4.13;2.50;;;20.50;99.90;;;;;;5015720;28;20204;-68
2022/06/18 06:34:50;;;;;;;5.27;2.80;;;20.50;99.90;;;;;;5015584;28;20701;-68
2022/06/18 06:37:17;;;;;;;6.53;2.53;;;20.60;99.90;;;;;;5015707;28;20226;-68
2022/06/18 06:39:45;;;;;;;3.97;2.73;;;20.70;99.90;;;;;;5015452;28;20560;-68
2022/06/18 06:42:12;;;;;;;4.47;2.50;;;20.80;99.90;;;;;;5015527;28;20575;-67
2022/06/18 06:44:39;;;;;;;5.07;2.60;;;21.00;99.90;;;;;;5015125;28;20598;-68
2022/06/18 06:47:06;;;;;;;4.93;2.50;;;21.10;99.90;;;;;;5015669;28;20199;-67
2022/06/18 06:49:33;;;;;;;9.77;2.60;;;21.30;99.90;;;;;;5015710;28;20282;-67
2022/06/18 06:51:59;;;;;;;3.97;2.50;;;21.30;99.90;;;;;;5015496;28;20295;-67
2022/06/18 06:54:26;;;;;;;3.67;2.40;;;21.50;99.90;;;;;;5015185;28;20420;-67
2022/06/18 06:59:39;;;;;;;4.67;2.17;;;21.60;99.90;;;;;;5015465;28;20265;-70
2022/06/18 07:02:14;;;;;;;5.70;2.40;;;21.70;99.90;;;;;;5015629;28;20195;-67
2022/06/18 07:04:41;;;;;;;3.67;2.20;;;21.70;99.90;;;;;;5015303;28;20240;-66
2022/06/18 07:07:11;;;;;;;4.50;2.13;;;21.60;99.90;;;;;;5015329;28;20559;-67
2022/06/18 07:09:39;;;;;;;4.40;2.00;;;21.70;99.90;;;;;;5015375;28;20641;-67
2022/06/18 07:12:08;;;;;;;5.00;2.27;;;21.90;99.90;;;;;;5015123;28;20234;-67
2022/06/18 07:14:36;;;;;;;6.93;2.00;;;22.10;99.90;;;;;;5015024;28;20250;-67
2022/06/18 07:17:04;;;;;;;7.83;2.60;;;22.10;99.90;;;;;;5015080;28;20199;-67
2022/06/18 07:19:31;;;;;;;5.20;2.60;;;22.30;99.90;;;;;;5015387;28;20596;-66
2022/06/18 07:21:58;;;;;;;2.50;1.93;;;22.30;99.90;;;;;;5003001;28;20200;-67
2022/06/18 07:24:25;;;;;;;3.23;2.30;;;22.30;99.90;;;;;;4994945;28;20192;-67
2022/06/18 07:26:52;;;;;;;4.33;2.23;;;22.60;99.90;;;;;;4995229;28;20199;-67
2022/06/18 07:29:21;;;;;;;2.93;1.83;;;22.70;99.90;;;;;;4995357;28;20192;-67
2022/06/18 07:31:49;;;;;;;4.90;2.50;;;22.90;99.90;;;;;;4995407;28;20196;-66
2022/06/18 07:34:16;;;;;;;6.30;2.40;;;23.10;99.90;;;;;;5012742;28;20224;-67
2022/06/18 07:36:43;;;;;;;3.67;2.50;;;23.30;99.90;;;;;;4995384;28;20639;-67
2022/06/18 07:39:10;;;;;;;6.60;2.50;;;23.40;99.90;;;;;;4994960;28;20314;-67
2022/06/18 07:41:43;;;;;;;3.13;2.00;;;23.60;99.90;;;;;;4995423;28;20232;-67
2022/06/18 07:44:11;;;;;;;4.35;2.20;;;23.90;99.90;;;;;;4995228;28;20208;-67
2022/06/18 07:46:39;;;;;;;3.73;2.40;;;23.70;99.90;;;;;;4995246;28;20204;-68
2022/06/18 07:49:07;;;;;;;5.70;2.27;;;23.60;99.90;;;;;;5013432;28;20581;-68
2022/06/18 07:51:35;;;;;;;3.40;2.40;;;23.60;99.90;;;;;;4992912;28;20260;-68
2022/06/18 07:54:02;;;;;;;8.70;2.87;;;23.80;99.90;;;;;;4994837;28;20234;-68
2022/06/18 07:56:31;;;;;;;4.93;2.60;;;23.90;99.90;;;;;;4996877;28;20685;-68
2022/06/18 07:58:58;;;;;;;5.50;2.17;;;23.80;99.90;;;;;;4982757;28;20216;-67
2022/06/18 08:01:26;;;;;;;4.10;2.23;;;24.10;99.90;;;;;;5016497;28;20220;-68
2022/06/18 08:03:53;;;;;;;3.55;2.20;;;24.20;99.90;;;;;;4998816;28;20295;-69
2022/06/18 08:06:20;;;;;;;4.47;2.67;;;24.50;99.90;;;;;;4998819;28;20212;-67
2022/06/18 08:08:47;;;;;;;5.90;2.47;;;24.60;99.90;;;;;;4998661;28;20675;-68
2022/06/18 08:11:16;;;;;;;5.38;2.50;;;24.90;99.90;;;;;;4998803;28;20287;-68
2022/06/18 08:13:43;;;;;;;6.72;2.78;;;25.00;99.90;;;;;;4998774;28;20287;-68
2022/06/18 08:16:13;;;;;;;4.25;2.65;;;24.80;99.90;;;;;;4998484;28;20657;-67
2022/06/18 08:18:41;;;;;;;5.57;2.50;;;24.70;99.90;;;;;;4998480;28;20311;-67
2022/06/18 08:21:11;;;;;;;4.00;2.75;;;25.00;99.90;;;;;;4998717;28;20275;-68
2022/06/18 08:23:38;;;;;;;3.53;2.60;;;25.00;99.90;;;;;;4998886;28;20286;-68
2022/06/18 08:26:06;;;;;;;5.13;2.40;;;25.00;99.90;;;;;;4998319;28;20291;-68
2022/06/18 08:28:35;;;;;;;5.20;2.60;;;25.00;99.90;;;;;;4998552;28;20240;-68
2022/06/18 08:31:04;;;;;;;2.50;2.25;;;25.00;99.80;;;;;;4998422;28;20283;-67
2022/06/18 08:33:32;;;;;;;3.78;2.30;;;24.70;99.90;;;;;;4998268;28;20196;-68
2022/06/18 08:36:02;;;;;;;3.53;2.33;;;24.50;99.00;;;;;;4987169;28;20286;-67
2022/06/18 08:38:30;;;;;;;3.95;2.42;;;24.30;98.80;;;;;;4994919;28;20224;-68
2022/06/18 08:41:17;;;;;;;4.88;2.42;;;24.50;99.00;;;;;;4995862;28;20200;-67
2022/06/18 08:44:03;;;;;;;2.70;2.40;;;24.70;98.40;;;;;;4998390;28;20291;-70
2022/06/18 08:46:57;;;;;;;3.55;2.28;;;24.80;98.70;;;;;;4959616;28;20201;-67
2022/06/18 08:49:33;;;;;;;4.57;2.17;;;24.90;96.50;;;;;;4958750;28;20506;-65
2022/06/18 08:52:20;;;;;;;3.65;2.40;;;24.70;96.30;;;;;;4959401;28;20215;-66
2022/06/18 08:54:57;;;;;;;3.65;2.40;;;24.90;96.10;;;;;;4989776;28;20252;-66
2022/06/18 08:57:31;;;;;;;3.78;2.25;;;24.80;97.40;;;;;;5006469;28;20239;-66
2022/06/18 09:00:34;;;;;;;4.07;2.40;;;25.00;97.60;;;;;;5004115;28;20190;-69
2022/06/18 09:03:21;;;;;;;5.45;2.25;;;25.10;97.40;;;;;;4939608;29;20294;-66
2022/06/18 09:06:25;;;;;;;3.03;2.13;;;25.20;95.20;;;;;;4874431;29;20201;-67
2022/06/18 09:09:05;;;;;;;2.50;2.20;;;25.10;95.20;;;;;;4859210;29;20211;-67
2022/06/18 09:12:01;;;;;;;5.15;2.50;;;25.40;96.10;;;;;;4862344;29;20291;-67
2022/06/18 09:14:57;;;;;;;4.07;2.40;;;25.60;94.90;;;;;;4877264;29;20687;-67
2022/06/18 09:17:31;;;;;;;5.20;2.75;;;25.80;94.60;;;;;;4863236;29;20215;-66
2022/06/18 09:20:10;;;;;;;5.80;2.80;;;25.80;93.10;;;;;;4861401;29;20210;-67
2022/06/18 09:22:57;;;;;;;3.13;2.58;;;25.50;93.00;;;;;;4878719;29;20199;-67
2022/06/18 09:25:28;;;;;;;4.47;2.60;;;25.30;94.30;;;;;;4878391;29;20213;-66
2022/06/18 09:28:05;;;;;;;7.93;2.92;;;25.20;94.40;;;;;;4878245;29;20201;-66
2022/06/18 09:30:38;;;;;;;3.78;2.58;;;25.30;94.60;;;;;;4862785;29;20189;-67
2022/06/18 09:33:10;;;;;;;3.80;2.45;;;25.50;94.60;;;;;;4878705;29;20218;-68
2022/06/18 09:35:53;;;;;;;5.07;2.90;;;25.40;95.10;;;;;;4878421;29;20212;-68
2022/06/18 09:38:35;;;;;;;5.53;3.13;;;25.30;95.20;;;;;;4862854;29;20247;-68
2022/06/18 09:41:10;;;;;;;6.07;2.55;;;25.40;95.30;;;;;;4917031;29;20230;-69
2022/06/18 09:43:44;;;;;;;4.38;2.38;;;25.90;94.50;;;;;;4948136;28;20204;-68
2022/06/18 09:46:33;;;;;;;3.08;2.63;;;25.60;92.20;;;;;;4977483;28;20231;-69
2022/06/18 09:49:01;;;;;;;4.78;2.72;;;25.40;92.60;;;;;;4996101;28;20201;-69
2022/06/18 09:51:47;;;;;;;4.13;2.60;;;25.60;92.20;;;;;;4977639;28;20211;-69
2022/06/18 09:54:17;;;;;;;5.18;2.60;;;25.80;91.80;;;;;;4977288;28;20299;-69
2022/06/18 09:56:48;;;;;;;4.00;2.60;;;25.80;92.00;;;;;;4977248;28;20286;-70
2022/06/18 09:59:34;;;;;;;5.68;3.42;;;26.00;92.50;;;;;;4977409;28;20234;-68
2022/06/18 10:02:02;;;;;;;3.70;2.42;;;26.30;91.40;;;;;;4993465;28;20284;-69
2022/06/18 10:07:25;;;;;;;4.47;2.55;;;26.70;91.20;;;;;;5002954;28;20200;-69
2022/06/18 10:10:01;;;;;;;3.65;2.58;;;26.50;89.60;;;;;;5006542;28;20286;-68
2022/06/18 10:12:37;;;;;;;4.32;2.75;;;26.40;89.90;;;;;;5000206;28;20681;-70
2022/06/18 10:15:08;;;;;;;5.47;2.75;;;26.10;90.60;;;;;;5015862;28;20649;-69
2022/06/18 10:18:09;;;;;;;3.63;2.78;;;26.10;90.50;;;;;;5016403;28;20633;-71
2022/06/18 10:20:40;;;;;;;4.65;2.80;;;26.40;90.30;;;;;;5033496;28;20184;-69
2022/06/18 10:23:39;;;;;;;3.58;2.80;;;26.20;89.30;;;;;;5016083;28;20210;-69
2022/06/18 10:26:36;;;;;;;4.55;2.67;;;26.30;89.70;;;;;;5033780;28;20653;-70
2022/06/18 10:29:30;;;;;;;4.22;2.95;;;26.20;88.50;;;;;;5016207;28;20494;-70
2022/06/18 10:32:12;;;;;;;3.67;2.47;;;26.50;89.30;;;;;;5015690;28;20394;-69
2022/06/18 10:35:00;;;;;;;6.10;2.67;;;27.10;88.60;;;;;;5016047;28;20254;-72
2022/06/18 10:37:33;;;;;;;4.90;2.70;;;27.60;85.80;;;;;;5015662;28;20223;-68
2022/06/18 10:40:45;;;;;;;5.22;3.05;;;27.80;84.60;;;;;;5033404;28;20203;-69
2022/06/18 10:43:20;;;;;;;4.30;2.47;;;27.50;83.40;;;;;;5015550;28;20290;-69
2022/06/18 10:46:08;;;;;;;3.25;2.40;;;27.70;82.90;;;;;;5015376;28;20656;-69
2022/06/18 10:48:36;;;;;;;5.45;3.13;;;27.80;82.80;;;;;;5033471;28;20195;-70
2022/06/18 10:51:03;;;;;;;4.72;2.50;;;27.70;81.80;;;;;;5015594;28;20242;-70
2022/06/18 10:53:58;;;;;;;3.85;2.80;;;27.10;81.40;;;;;;5015356;28;20286;-69
2022/06/18 10:56:28;;;;;;;10.02;2.63;;;27.30;81.30;;;;;;5013812;28;20667;-68
2022/06/18 10:58:57;;;;;;;3.10;2.30;;;27.50;81.30;;;;;;5014981;28;20314;-68
2022/06/18 11:01:34;;;;;;;3.00;2.22;;;27.60;79.80;;;;;;5015585;28;20195;-69
2022/06/18 11:04:05;;;;;;;5.43;2.88;;;27.60;79.80;;;;;;4998996;28;20590;-68
2022/06/18 11:06:32;;;;;;;3.33;2.70;;;27.80;79.10;;;;;;5015284;28;20322;-77
2022/06/18 11:09:02;;;;;;;2.53;2.25;;;27.90;79.90;;;;;;5015467;28;20204;-76
2022/06/18 11:11:32;;;;;;;3.55;2.50;;;28.20;79.90;;;;;;4999357;28;20203;-78
2022/06/18 11:14:19;;;;;;;2.78;2.40;;;28.10;79.50;;;;;;5014982;28;20645;-78
2022/06/18 11:16:51;;;;;;;4.72;2.40;;;28.20;78.80;;;;;;5015395;28;20207;-79
2022/06/18 11:19:27;;;;;;;4.57;2.50;;;28.10;79.30;;;;;;5015171;28;20223;-84
2022/06/18 11:21:54;;;;;;;4.28;2.45;;;27.60;78.70;;;;;;5032628;28;20194;-80
2022/06/18 11:24:36;;;;;;;3.78;2.53;;;27.90;79.50;;;;;;4998950;28;20199;-74
2022/06/18 11:27:07;;;;;;;3.92;2.47;;;28.10;78.40;;;;;;5014108;28;20666;-75
2022/06/18 11:29:47;;;;;;;3.13;2.67;;;28.50;77.40;;;;;;5015068;28;20196;-73
2022/06/18 11:32:37;;;;;;;8.25;2.60;;;29.00;75.70;;;;;;5018176;28;20294;-70
2022/06/18 11:35:17;;;;;;;5.88;2.42;;;29.60;74.10;;;;;;5019363;28;20211;-81
2022/06/18 11:37:56;;;;;;;4.22;2.75;;;30.40;75.70;;;;;;5019436;28;20203;-72
2022/06/18 11:40:24;;;;;;;4.00;2.67;;;30.40;76.00;;;;;;5018638;28;20222;-76
2022/06/18 11:42:57;;;;;;;4.38;2.80;;;30.30;73.60;;;;;;5018973;28;20295;-75
2022/06/18 11:45:50;;;;;;;7.22;2.28;;;30.30;77.90;;;;;;5003227;28;20195;-74
2022/06/18 11:48:26;;;;;;;3.70;2.22;;;30.30;74.40;;;;;;5018558;28;20201;-77
2022/06/18 11:51:01;;;;;;;3.33;2.50;;;30.30;73.60;;;;;;5018399;28;20728;-77
2022/06/18 11:53:34;;;;;;;2.63;2.10;;;31.00;76.10;;;;;;5018614;28;20249;-74
2022/06/18 11:56:11;;;;;;;3.50;2.40;;;30.20;72.90;;;;;;5018854;28;20237;-73
2022/06/18 11:58:51;;;;;;;4.35;2.47;;;30.80;73.70;;;;;;5018606;28;20253;-74
2022/06/18 12:01:37;;;;;;;3.40;2.50;;;30.90;69.60;;;;;;5002296;28;20289;-73
2022/06/18 12:04:33;;;;;;;3.28;2.40;;;31.00;71.60;;;;;;5018459;28;20646;-71
2022/06/18 12:07:07;;;;;;;3.85;2.03;;;31.20;73.70;;;;;;5018719;28;20195;-77
2022/06/18 12:09:35;;;;;;;3.22;2.40;;;31.50;69.50;;;;;;5018077;28;20207;-77
2022/06/18 12:12:08;;;;;;;3.17;2.40;;;31.80;67.40;;;;;;5018510;28;20210;-78
2022/06/18 12:14:55;;;;;;;3.50;2.55;;;31.80;68.30;;;;;;5035949;28;20192;-74
2022/06/18 12:17:46;;;;;;;3.17;2.58;;;32.00;69.00;;;;;;5018541;28;20297;-74
2022/06/18 12:20:38;;;;;;;5.45;2.60;;;32.00;65.40;;;;;;5018220;28;20666;-73
2022/06/18 12:23:39;;;;;;;5.22;2.53;;;32.20;67.20;;;;;;5018258;28;20223;-75
2022/06/18 12:26:19;;;;;;;4.93;2.53;;;32.20;67.30;;;;;;5010196;28;20291;-77
2022/06/18 12:29:14;;;;;;;3.58;2.20;;;31.40;68.90;;;;;;5035621;28;20325;-75
2022/06/18 12:31:51;;;;;;;4.07;2.47;;;30.90;71.60;;;;;;5017661;28;20187;-74
2022/06/18 12:34:30;;;;;;;2.90;2.30;;;31.40;65.20;;;;;;5018108;28;20207;-74
2022/06/18 12:37:13;;;;;;;2.78;2.20;;;31.20;63.50;;;;;;5035708;28;20266;-78
2022/06/18 12:40:03;;;;;;;2.90;2.45;;;30.70;63.70;;;;;;5003588;28;20232;-76
2022/06/18 12:42:42;;;;;;;5.10;2.40;;;30.60;65.50;;;;;;5017782;28;20203;-73
2022/06/18 12:45:29;;;;;;;6.07;2.80;;;29.40;65.40;;;;;;5017733;28;20211;-75
2022/06/18 12:48:16;;;;;;;3.60;2.58;;;28.80;70.90;;;;;;5017750;28;20278;-73
2022/06/18 12:50:56;;;;;;;5.80;2.70;;;28.70;69.80;;;;;;5027429;28;20195;-71
2022/06/18 12:53:46;;;;;;;4.90;2.60;;;28.30;68.30;;;;;;4997692;28;20207;-70
2022/06/18 12:56:22;;;;;;;3.75;2.40;;;28.10;69.30;;;;;;4997485;28;20319;-71
2022/06/18 12:59:23;;;;;;;6.53;2.85;;;28.20;69.30;;;;;;4997763;28;20319;-71
2022/06/18 13:02:07;;;;;;;3.85;2.55;;;28.40;70.50;;;;;;4997633;28;20625;-70
2022/06/18 13:04:56;;;;;;;3.60;2.53;;;28.90;73.20;;;;;;4997218;28;20211;-74
2022/06/18 13:07:32;;;;;;;6.38;2.80;;;29.20;73.30;;;;;;4997653;28;20291;-77
2022/06/18 13:10:01;;;;;;;5.35;2.70;;;29.20;69.90;;;;;;4997437;28;20203;-75
2022/06/18 13:12:58;;;;;;;4.45;2.83;;;29.00;71.30;;;;;;4997512;28;20196;-75
2022/06/18 13:15:40;;;;;;;3.28;2.60;;;28.70;71.70;;;;;;4997211;28;20193;-75
2022/06/18 13:18:16;;;;;;;2.70;2.22;;;28.30;71.50;;;;;;5014795;28;20204;-75
2022/06/18 13:20:48;;;;;;;2.53;2.30;;;28.00;68.60;;;;;;4999938;28;20779;-77
2022/06/18 13:29:30;;;;;;;3.42;2.50;;;28.10;71.20;;;;;;5016723;28;20684;-76
2022/06/18 13:32:07;;;;;;;3.35;2.50;;;29.00;67.20;;;;;;4954028;29;20296;-71
2022/06/18 13:35:14;;;;;;;5.10;2.42;;;29.40;64.80;;;;;;4953948;29;20623;-74
2022/06/18 13:37:54;;;;;;;3.60;2.50;;;30.00;66.50;;;;;;4954142;29;20601;-73